Al Rawdah — V7VM8 — position and weather

sailwx.info

Track history (hours):
 
Tides and Currents Weather Stations Pressure Air Temp Water Temp Dewpoint Dewpoint Depression Visibility Wind Speed Wind Dir Waves Ship Positions

Al Rawdah

Last reported at 2016-May-06 01:33 UTC. Time now 2016-May-06 01:40 UTC.
Position N 44°06' E 009°51'.

Length 307 m; draft 10.3 m.

Type: Ship (hazmat cat A). MMSI: 538004160.

Date/timePositionNaut miles runAvg speedWind from/ knotsBaromVisibWave heightAir tempDewpointWater temp
2016-May-06 01:33N 44°06' E 009°51'0 0.0
2016-May-06 00:33N 44°06' E 009°51'0 0.0
2016-May-05 23:33N 44°06' E 009°51'0 0.0
2016-May-05 22:30N 44°06' E 009°51'0 0.0
2016-May-05 21:33N 44°06' E 009°51'0 0.0
2016-May-05 20:33N 44°06' E 009°51'0 0.0
2016-May-05 19:33N 44°06' E 009°51'0 0.0
2016-May-05 18:33N 44°06' E 009°51'0 0.0
2016-May-05 17:33N 44°06' E 009°51'0 0.0
2016-May-05 16:33N 44°06' E 009°51'4 3.6
2016-May-05 15:33N 44°03' E 009°52'1414.0
2016-May-05 14:33N 43°49' E 009°50'1817.6
2016-May-05 13:33N 43°33' E 009°40'1817.9
2016-May-05 12:33N 43°15' E 009°39'1818.0
2016-May-05 11:34N 42°57' E 009°40'1817.8
2016-May-05 10:33N 42°40' E 009°47'4217.8
2016-May-05 08:12N 42°04' E 010°17'29119.9
2016-May-04 17:33N 38°58' E 015°11'2019.6
2016-May-04 16:31N 38°42' E 015°27'1919.8
2016-May-04 15:33N 38°26' E 015°39'1515.1
2016-May-04 14:33N 38°11' E 015°37'1111.1
2016-May-04 13:33N 38°00' E 015°35'1616.1
2016-May-04 12:33N 37°47' E 015°47'2019.6
2016-May-04 11:33N 37°38' E 016°09'74418.0
2016-May-02 18:21N 32°32' E 029°57'1718.8
2016-May-02 17:26N 32°25' E 030°16'1818.3
2016-May-02 16:27N 32°18' E 030°35'1918.2
2016-May-02 15:23N 32°10' E 030°56'1518.5
2016-May-02 14:33N 32°04' E 031°13'1818.3
2016-May-02 13:33N 31°56' E 031°33'1817.7
2016-May-02 12:33N 31°49' E 031°52'1818.0
2016-May-02 11:33N 31°38' E 032°08'1818.0
2016-May-02 10:33N 31°27' E 032°25'1412.2
2016-May-02 09:23N 31°13' E 032°21'0 0.4
2016-May-02 08:33N 31°12' E 032°21'0 0.0
2016-May-02 06:30N 31°12' E 032°21'0 0.0
2016-May-02 04:24N 31°12' E 032°21'  
Track history (hours):
 
Tides and Currents Weather Stations Pressure Air Temp Water Temp Dewpoint Dewpoint Depression Visibility Wind Speed Wind Dir Waves Ship Positions

Al Rawdah

Last reported at 2016-May-06 01:33 UTC. Time now 2016-May-06 01:40 UTC.
Position N 44°06' E 009°51'.

Length 307 m; draft 10.3 m.

Type: Ship (hazmat cat A). MMSI: 538004160.

Date/timePositionNaut miles runAvg speedWind from/ knotsBaromVisibWave heightAir tempDewpointWater temp
2016-May-06 01:33N 44°06' E 009°51'0 0.0
2016-May-06 00:33N 44°06' E 009°51'0 0.0
2016-May-05 23:33N 44°06' E 009°51'0 0.0
2016-May-05 22:30N 44°06' E 009°51'0 0.0
2016-May-05 21:33N 44°06' E 009°51'0 0.0
2016-May-05 20:33N 44°06' E 009°51'0 0.0
2016-May-05 19:33N 44°06' E 009°51'0 0.0
2016-May-05 18:33N 44°06' E 009°51'0 0.0
2016-May-05 17:33N 44°06' E 009°51'0 0.0
2016-May-05 16:33N 44°06' E 009°51'4 3.6
2016-May-05 15:33N 44°03' E 009°52'1414.0
2016-May-05 14:33N 43°49' E 009°50'1817.6
2016-May-05 13:33N 43°33' E 009°40'1817.9
2016-May-05 12:33N 43°15' E 009°39'1818.0
2016-May-05 11:34N 42°57' E 009°40'1817.8
2016-May-05 10:33N 42°40' E 009°47'4217.8
2016-May-05 08:12N 42°04' E 010°17'29119.9
2016-May-04 17:33N 38°58' E 015°11'2019.6
2016-May-04 16:31N 38°42' E 015°27'1919.8
2016-May-04 15:33N 38°26' E 015°39'1515.1
2016-May-04 14:33N 38°11' E 015°37'1111.1
2016-May-04 13:33N 38°00' E 015°35'1616.1
2016-May-04 12:33N 37°47' E 015°47'2019.6
2016-May-04 11:33N 37°38' E 016°09'74418.0
2016-May-02 18:21N 32°32' E 029°57'1718.8
2016-May-02 17:26N 32°25' E 030°16'1818.3
2016-May-02 16:27N 32°18' E 030°35'1918.2
2016-May-02 15:23N 32°10' E 030°56'1518.5
2016-May-02 14:33N 32°04' E 031°13'1818.3
2016-May-02 13:33N 31°56' E 031°33'1817.7
2016-May-02 12:33N 31°49' E 031°52'1818.0
2016-May-02 11:33N 31°38' E 032°08'1818.0
2016-May-02 10:33N 31°27' E 032°25'1412.2
2016-May-02 09:23N 31°13' E 032°21'0 0.4
2016-May-02 08:33N 31°12' E 032°21'0 0.0
2016-May-02 06:30N 31°12' E 032°21'0 0.0
2016-May-02 04:24N 31°12' E 032°21'  

Dump ship's entire track history